sensor_id;sensor_type;location;lat;lon;timestamp;temperature;humidity
79497;SHT31;75160;53.138;18.020;2024-02-26T00:00:23;4.47;78.72
79497;SHT31;75160;53.138;18.020;2024-02-26T00:01:45;4.41;78.75
79497;SHT31;75160;53.138;18.020;2024-02-26T00:02:47;4.39;78.90
79497;SHT31;75160;53.138;18.020;2024-02-26T00:03:49;4.39;78.95
79497;SHT31;75160;53.138;18.020;2024-02-26T00:04:51;4.37;79.07
79497;SHT31;75160;53.138;18.020;2024-02-26T00:05:53;4.36;79.10
79497;SHT31;75160;53.138;18.020;2024-02-26T00:06:55;4.34;79.10
79497;SHT31;75160;53.138;18.020;2024-02-26T00:07:59;4.32;79.13
79497;SHT31;75160;53.138;18.020;2024-02-26T00:09:01;4.30;79.10
79497;SHT31;75160;53.138;18.020;2024-02-26T00:10:04;4.30;79.10
79497;SHT31;75160;53.138;18.020;2024-02-26T00:11:06;4.27;79.10
79497;SHT31;75160;53.138;18.020;2024-02-26T00:12:08;4.26;79.10
79497;SHT31;75160;53.138;18.020;2024-02-26T00:13:10;4.24;79.15
79497;SHT31;75160;53.138;18.020;2024-02-26T00:14:12;4.23;79.18
79497;SHT31;75160;53.138;18.020;2024-02-26T00:15:13;4.22;79.10
79497;SHT31;75160;53.138;18.020;2024-02-26T00:16:15;4.23;79.13
79497;SHT31;75160;53.138;18.020;2024-02-26T00:17:17;4.22;79.20
79497;SHT31;75160;53.138;18.020;2024-02-26T00:18:19;4.23;79.07
79497;SHT31;75160;53.138;18.020;2024-02-26T00:19:20;4.21;79.00
79497;SHT31;75160;53.138;18.020;2024-02-26T00:20:22;4.19;79.00
79497;SHT31;75160;53.138;18.020;2024-02-26T00:21:24;4.18;79.00
79497;SHT31;75160;53.138;18.020;2024-02-26T00:22:26;4.18;79.00
79497;SHT31;75160;53.138;18.020;2024-02-26T00:23:28;4.20;79.13
79497;SHT31;75160;53.138;18.020;2024-02-26T00:24:30;4.18;79.13
79497;SHT31;75160;53.138;18.020;2024-02-26T00:25:32;4.18;79.07
79497;SHT31;75160;53.138;18.020;2024-02-26T00:26:33;4.18;79.05
79497;SHT31;75160;53.138;18.020;2024-02-26T00:27:35;4.18;79.05
79497;SHT31;75160;53.138;18.020;2024-02-26T00:28:37;4.16;79.05
79497;SHT31;75160;53.138;18.020;2024-02-26T00:29:39;4.16;79.00
79497;SHT31;75160;53.138;18.020;2024-02-26T00:30:41;4.16;79.00
79497;SHT31;75160;53.138;18.020;2024-02-26T00:31:43;4.14;78.93
79497;SHT31;75160;53.138;18.020;2024-02-26T00:32:45;4.14;78.95
79497;SHT31;75160;53.138;18.020;2024-02-26T00:33:46;4.13;78.93
79497;SHT31;75160;53.138;18.020;2024-02-26T00:34:48;4.10;78.95
79497;SHT31;75160;53.138;18.020;2024-02-26T00:35:50;4.09;79.00
79497;SHT31;75160;53.138;18.020;2024-02-26T00:36:51;4.07;79.03
79497;SHT31;75160;53.138;18.020;2024-02-26T00:37:53;4.07;79.10
79497;SHT31;75160;53.138;18.020;2024-02-26T00:38:55;4.04;79.13
79497;SHT31;75160;53.138;18.020;2024-02-26T00:39:57;4.04;79.13
79497;SHT31;75160;53.138;18.020;2024-02-26T00:40:58;4.02;79.05
79497;SHT31;75160;53.138;18.020;2024-02-26T00:42:00;4.00;78.90
79497;SHT31;75160;53.138;18.020;2024-02-26T00:43:02;3.97;78.75
79497;SHT31;75160;53.138;18.020;2024-02-26T00:44:04;3.93;78.75
79497;SHT31;75160;53.138;18.020;2024-02-26T00:45:06;3.91;78.82
79497;SHT31;75160;53.138;18.020;2024-02-26T00:46:08;3.90;78.88
79497;SHT31;75160;53.138;18.020;2024-02-26T00:47:10;3.88;78.88
79497;SHT31;75160;53.138;18.020;2024-02-26T00:48:12;3.89;79.07
79497;SHT31;75160;53.138;18.020;2024-02-26T00:49:15;3.88;79.10
79497;SHT31;75160;53.138;18.020;2024-02-26T00:50:17;3.87;79.15
79497;SHT31;75160;53.138;18.020;2024-02-26T00:51:18;3.86;79.20
79497;SHT31;75160;53.138;18.020;2024-02-26T00:52:20;3.85;79.07
79497;SHT31;75160;53.138;18.020;2024-02-26T00:53:22;3.82;79.03
79497;SHT31;75160;53.138;18.020;2024-02-26T00:54:26;3.80;79.10
79497;SHT31;75160;53.138;18.020;2024-02-26T00:55:28;3.79;79.15
79497;SHT31;75160;53.138;18.020;2024-02-26T00:56:29;3.77;79.20
79497;SHT31;75160;53.138;18.020;2024-02-26T00:57:31;3.75;79.30
79497;SHT31;75160;53.138;18.020;2024-02-26T00:58:33;3.75;79.40
79497;SHT31;75160;53.138;18.020;2024-02-26T00:59:35;3.73;79.47
79497;SHT31;75160;53.138;18.020;2024-02-26T01:00:37;3.74;79.53
79497;SHT31;75160;53.138;18.020;2024-02-26T01:01:38;3.72;79.40
79497;SHT31;75160;53.138;18.020;2024-02-26T01:02:40;3.70;79.47
79497;SHT31;75160;53.138;18.020;2024-02-26T01:03:43;3.68;79.55
79497;SHT31;75160;53.138;18.020;2024-02-26T01:04:44;3.67;79.55
79497;SHT31;75160;53.138;18.020;2024-02-26T01:05:46;3.67;79.55
79497;SHT31;75160;53.138;18.020;2024-02-26T01:06:48;3.68;79.60
79497;SHT31;75160;53.138;18.020;2024-02-26T01:07:50;3.69;79.63
79497;SHT31;75160;53.138;18.020;2024-02-26T01:08:52;3.70;79.75
79497;SHT31;75160;53.138;18.020;2024-02-26T01:09:54;3.72;79.75
79497;SHT31;75160;53.138;18.020;2024-02-26T01:10:56;3.74;79.80
79497;SHT31;75160;53.138;18.020;2024-02-26T01:11:57;3.76;79.80
79497;SHT31;75160;53.138;18.020;2024-02-26T01:12:59;3.78;79.80
79497;SHT31;75160;53.138;18.020;2024-02-26T01:14:02;3.80;79.80
79497;SHT31;75160;53.138;18.020;2024-02-26T01:15:05;3.81;79.72
79497;SHT31;75160;53.138;18.020;2024-02-26T01:16:07;3.84;79.70
79497;SHT31;75160;53.138;18.020;2024-02-26T01:17:09;3.85;79.57
79497;SHT31;75160;53.138;18.020;2024-02-26T01:18:11;3.86;79.57
79497;SHT31;75160;53.138;18.020;2024-02-26T01:19:13;3.87;79.60
79497;SHT31;75160;53.138;18.020;2024-02-26T01:20:15;3.88;79.60
79497;SHT31;75160;53.138;18.020;2024-02-26T01:21:17;3.92;79.65
79497;SHT31;75160;53.138;18.020;2024-02-26T01:22:19;3.93;79.60
79497;SHT31;75160;53.138;18.020;2024-02-26T01:23:21;3.95;79.53
79497;SHT31;75160;53.138;18.020;2024-02-26T01:24:23;3.95;79.43
79497;SHT31;75160;53.138;18.020;2024-02-26T01:25:25;3.93;79.30
79497;SHT31;75160;53.138;18.020;2024-02-26T01:26:26;3.94;79.35
79497;SHT31;75160;53.138;18.020;2024-02-26T01:27:28;3.94;79.40
79497;SHT31;75160;53.138;18.020;2024-02-26T01:28:30;3.95;79.50
79497;SHT31;75160;53.138;18.020;2024-02-26T01:29:32;3.96;79.53
79497;SHT31;75160;53.138;18.020;2024-02-26T01:30:33;3.97;79.57
79497;SHT31;75160;53.138;18.020;2024-02-26T01:31:38;3.98;79.57
79497;SHT31;75160;53.138;18.020;2024-02-26T01:32:40;3.99;79.47
79497;SHT31;75160;53.138;18.020;2024-02-26T01:33:41;3.99;79.43
79497;SHT31;75160;53.138;18.020;2024-02-26T01:34:43;4.00;79.45
79497;SHT31;75160;53.138;18.020;2024-02-26T01:35:45;4.01;79.47
79497;SHT31;75160;53.138;18.020;2024-02-26T01:36:48;4.01;79.40
79497;SHT31;75160;53.138;18.020;2024-02-26T01:37:50;4.02;79.55
79497;SHT31;75160;53.138;18.020;2024-02-26T01:38:52;4.05;79.65
79497;SHT31;75160;53.138;18.020;2024-02-26T01:39:54;4.07;79.65
79497;SHT31;75160;53.138;18.020;2024-02-26T01:40:56;4.10;79.47
79497;SHT31;75160;53.138;18.020;2024-02-26T01:41:57;4.10;79.35
79497;SHT31;75160;53.138;18.020;2024-02-26T01:42:59;4.10;79.30
79497;SHT31;75160;53.138;18.020;2024-02-26T01:44:02;4.10;79.30
79497;SHT31;75160;53.138;18.020;2024-02-26T01:45:04;4.11;79.25
79497;SHT31;75160;53.138;18.020;2024-02-26T01:46:10;4.12;79.13
79497;SHT31;75160;53.138;18.020;2024-02-26T01:47:15;4.11;79.18
79497;SHT31;75160;53.138;18.020;2024-02-26T01:48:17;4.10;79.15
79497;SHT31;75160;53.138;18.020;2024-02-26T01:49:19;4.09;79.20
79497;SHT31;75160;53.138;18.020;2024-02-26T01:50:21;4.11;79.22
79497;SHT31;75160;53.138;18.020;2024-02-26T01:51:25;4.11;79.30
79497;SHT31;75160;53.138;18.020;2024-02-26T01:52:27;4.10;79.30
79497;SHT31;75160;53.138;18.020;2024-02-26T01:53:29;4.11;79.40
79497;SHT31;75160;53.138;18.020;2024-02-26T01:54:31;4.11;79.40
79497;SHT31;75160;53.138;18.020;2024-02-26T01:55:38;4.11;79.50
79497;SHT31;75160;53.138;18.020;2024-02-26T01:56:40;4.13;79.57
79497;SHT31;75160;53.138;18.020;2024-02-26T01:57:43;4.14;79.55
79497;SHT31;75160;53.138;18.020;2024-02-26T01:58:49;4.15;79.50
79497;SHT31;75160;53.138;18.020;2024-02-26T01:59:51;4.14;79.47
79497;SHT31;75160;53.138;18.020;2024-02-26T02:00:53;4.13;79.40
79497;SHT31;75160;53.138;18.020;2024-02-26T02:01:56;4.13;79.25
79497;SHT31;75160;53.138;18.020;2024-02-26T02:03:03;4.14;79.30
79497;SHT31;75160;53.138;18.020;2024-02-26T02:04:08;4.11;79.35
79497;SHT31;75160;53.138;18.020;2024-02-26T02:05:10;4.11;79.43
79497;SHT31;75160;53.138;18.020;2024-02-26T02:06:14;4.11;79.72
79497;SHT31;75160;53.138;18.020;2024-02-26T02:07:16;4.13;79.80
79497;SHT31;75160;53.138;18.020;2024-02-26T02:08:20;4.11;79.82
79497;SHT31;75160;53.138;18.020;2024-02-26T02:09:24;4.12;79.70
79497;SHT31;75160;53.138;18.020;2024-02-26T02:10:28;4.11;79.70
79497;SHT31;75160;53.138;18.020;2024-02-26T02:11:30;4.12;79.65
79497;SHT31;75160;53.138;18.020;2024-02-26T02:12:33;4.10;79.70
79497;SHT31;75160;53.138;18.020;2024-02-26T02:13:35;4.11;79.63
79497;SHT31;75160;53.138;18.020;2024-02-26T02:14:37;4.10;79.60
79497;SHT31;75160;53.138;18.020;2024-02-26T02:15:39;4.08;79.60
79497;SHT31;75160;53.138;18.020;2024-02-26T02:16:41;4.08;79.60
79497;SHT31;75160;53.138;18.020;2024-02-26T02:17:43;4.07;79.60
79497;SHT31;75160;53.138;18.020;2024-02-26T02:18:45;4.05;79.70
79497;SHT31;75160;53.138;18.020;2024-02-26T02:19:47;4.05;79.88
79497;SHT31;75160;53.138;18.020;2024-02-26T02:20:49;4.05;80.00
79497;SHT31;75160;53.138;18.020;2024-02-26T02:21:50;4.04;80.10
79497;SHT31;75160;53.138;18.020;2024-02-26T02:22:52;4.04;80.05
79497;SHT31;75160;53.138;18.020;2024-02-26T02:23:54;4.00;80.00
79497;SHT31;75160;53.138;18.020;2024-02-26T02:24:55;3.98;80.05
79497;SHT31;75160;53.138;18.020;2024-02-26T02:25:57;3.98;80.10
79497;SHT31;75160;53.138;18.020;2024-02-26T02:27:00;3.97;80.10
79497;SHT31;75160;53.138;18.020;2024-02-26T02:28:03;3.95;80.05
79497;SHT31;75160;53.138;18.020;2024-02-26T02:29:06;3.94;80.00
79497;SHT31;75160;53.138;18.020;2024-02-26T02:30:10;3.91;79.97
79497;SHT31;75160;53.138;18.020;2024-02-26T02:31:13;3.90;79.97
79497;SHT31;75160;53.138;18.020;2024-02-26T02:32:16;3.90;79.97
79497;SHT31;75160;53.138;18.020;2024-02-26T02:33:19;3.91;80.00
79497;SHT31;75160;53.138;18.020;2024-02-26T02:34:22;3.89;79.95
79497;SHT31;75160;53.138;18.020;2024-02-26T02:35:24;3.89;79.82
79497;SHT31;75160;53.138;18.020;2024-02-26T02:36:26;3.85;79.78
79497;SHT31;75160;53.138;18.020;2024-02-26T02:37:28;3.83;79.80
79497;SHT31;75160;53.138;18.020;2024-02-26T02:38:30;3.82;79.90
79497;SHT31;75160;53.138;18.020;2024-02-26T02:39:33;3.81;79.88
79497;SHT31;75160;53.138;18.020;2024-02-26T02:40:34;3.80;79.82
79497;SHT31;75160;53.138;18.020;2024-02-26T02:41:36;3.79;79.72
79497;SHT31;75160;53.138;18.020;2024-02-26T02:42:38;3.76;79.70
79497;SHT31;75160;53.138;18.020;2024-02-26T02:43:40;3.76;79.70
79497;SHT31;75160;53.138;18.020;2024-02-26T02:44:41;3.73;79.78
79497;SHT31;75160;53.138;18.020;2024-02-26T02:45:43;3.72;79.85
79497;SHT31;75160;53.138;18.020;2024-02-26T02:46:45;3.70;79.80
79497;SHT31;75160;53.138;18.020;2024-02-26T02:47:47;3.69;79.82
79497;SHT31;75160;53.138;18.020;2024-02-26T02:48:48;3.68;79.80
79497;SHT31;75160;53.138;18.020;2024-02-26T02:49:51;3.66;79.88
79497;SHT31;75160;53.138;18.020;2024-02-26T02:50:52;3.66;79.90
79497;SHT31;75160;53.138;18.020;2024-02-26T02:51:54;3.65;79.93
79497;SHT31;75160;53.138;18.020;2024-02-26T02:52:56;3.65;80.00
79497;SHT31;75160;53.138;18.020;2024-02-26T02:53:58;3.67;80.00
79497;SHT31;75160;53.138;18.020;2024-02-26T02:54:59;3.66;80.07
79497;SHT31;75160;53.138;18.020;2024-02-26T02:56:02;3.68;80.15
79497;SHT31;75160;53.138;18.020;2024-02-26T02:57:04;3.69;80.28
79497;SHT31;75160;53.138;18.020;2024-02-26T02:58:06;3.70;80.18
79497;SHT31;75160;53.138;18.020;2024-02-26T02:59:07;3.67;80.00
79497;SHT31;75160;53.138;18.020;2024-02-26T03:00:10;3.67;80.18
79497;SHT31;75160;53.138;18.020;2024-02-26T03:01:13;3.67;80.30
79497;SHT31;75160;53.138;18.020;2024-02-26T03:02:15;3.68;80.35
79497;SHT31;75160;53.138;18.020;2024-02-26T03:03:16;3.69;80.40
79497;SHT31;75160;53.138;18.020;2024-02-26T03:04:18;3.69;80.40
79497;SHT31;75160;53.138;18.020;2024-02-26T03:05:20;3.71;80.50
79497;SHT31;75160;53.138;18.020;2024-02-26T03:06:22;3.75;80.65
79497;SHT31;75160;53.138;18.020;2024-02-26T03:07:24;3.75;80.55
79497;SHT31;75160;53.138;18.020;2024-02-26T03:08:26;3.74;80.50
79497;SHT31;75160;53.138;18.020;2024-02-26T03:09:27;3.75;80.45
79497;SHT31;75160;53.138;18.020;2024-02-26T03:10:29;3.74;80.60
79497;SHT31;75160;53.138;18.020;2024-02-26T03:11:31;3.76;80.60
79497;SHT31;75160;53.138;18.020;2024-02-26T03:12:33;3.75;80.63
79497;SHT31;75160;53.138;18.020;2024-02-26T03:13:35;3.76;80.78
79497;SHT31;75160;53.138;18.020;2024-02-26T03:14:37;3.76;80.68
79497;SHT31;75160;53.138;18.020;2024-02-26T03:15:39;3.79;80.60
79497;SHT31;75160;53.138;18.020;2024-02-26T03:16:41;3.79;80.43
79497;SHT31;75160;53.138;18.020;2024-02-26T03:17:43;3.79;80.38
79497;SHT31;75160;53.138;18.020;2024-02-26T03:18:45;3.80;80.50
79497;SHT31;75160;53.138;18.020;2024-02-26T03:19:46;3.81;80.40
79497;SHT31;75160;53.138;18.020;2024-02-26T03:20:49;3.82;80.35
79497;SHT31;75160;53.138;18.020;2024-02-26T03:21:51;3.84;80.50
79497;SHT31;75160;53.138;18.020;2024-02-26T03:22:53;3.85;80.22
79497;SHT31;75160;53.138;18.020;2024-02-26T03:23:54;3.84;80.10
79497;SHT31;75160;53.138;18.020;2024-02-26T03:24:57;3.84;80.20
79497;SHT31;75160;53.138;18.020;2024-02-26T03:25:58;3.84;80.22
79497;SHT31;75160;53.138;18.020;2024-02-26T03:27:00;3.82;80.15
79497;SHT31;75160;53.138;18.020;2024-02-26T03:28:02;3.81;80.13
79497;SHT31;75160;53.138;18.020;2024-02-26T03:29:04;3.80;80.13
79497;SHT31;75160;53.138;18.020;2024-02-26T03:30:07;3.81;80.30
79497;SHT31;75160;53.138;18.020;2024-02-26T03:31:10;3.79;80.20
79497;SHT31;75160;53.138;18.020;2024-02-26T03:32:12;3.78;80.07
79497;SHT31;75160;53.138;18.020;2024-02-26T03:33:14;3.78;80.05
79497;SHT31;75160;53.138;18.020;2024-02-26T03:34:15;3.77;80.15
79497;SHT31;75160;53.138;18.020;2024-02-26T03:35:18;3.78;80.15
79497;SHT31;75160;53.138;18.020;2024-02-26T03:36:20;3.78;80.10
79497;SHT31;75160;53.138;18.020;2024-02-26T03:37:23;3.76;80.05
79497;SHT31;75160;53.138;18.020;2024-02-26T03:38:24;3.75;80.30
79497;SHT31;75160;53.138;18.020;2024-02-26T03:39:26;3.76;80.50
79497;SHT31;75160;53.138;18.020;2024-02-26T03:40:28;3.77;80.68
79497;SHT31;75160;53.138;18.020;2024-02-26T03:41:29;3.77;80.47
79497;SHT31;75160;53.138;18.020;2024-02-26T03:42:33;3.74;80.43
79497;SHT31;75160;53.138;18.020;2024-02-26T03:43:35;3.76;80.60
79497;SHT31;75160;53.138;18.020;2024-02-26T03:44:36;3.76;80.68
79497;SHT31;75160;53.138;18.020;2024-02-26T03:45:38;3.75;80.60
79497;SHT31;75160;53.138;18.020;2024-02-26T03:46:40;3.73;80.60
79497;SHT31;75160;53.138;18.020;2024-02-26T03:47:44;3.72;80.57
79497;SHT31;75160;53.138;18.020;2024-02-26T03:48:45;3.72;80.53
79497;SHT31;75160;53.138;18.020;2024-02-26T03:49:47;3.73;80.78
79497;SHT31;75160;53.138;18.020;2024-02-26T03:50:49;3.73;80.97
79497;SHT31;75160;53.138;18.020;2024-02-26T03:51:51;3.73;81.00
79497;SHT31;75160;53.138;18.020;2024-02-26T03:52:53;3.75;81.05
79497;SHT31;75160;53.138;18.020;2024-02-26T03:53:55;3.74;81.10
79497;SHT31;75160;53.138;18.020;2024-02-26T03:54:57;3.76;81.20
79497;SHT31;75160;53.138;18.020;2024-02-26T03:56:02;3.77;81.30
79497;SHT31;75160;53.138;18.020;2024-02-26T03:57:05;3.78;81.30
79497;SHT31;75160;53.138;18.020;2024-02-26T03:58:07;3.78;81.53
79497;SHT31;75160;53.138;18.020;2024-02-26T03:59:10;3.80;81.55
79497;SHT31;75160;53.138;18.020;2024-02-26T04:00:12;3.82;81.50
79497;SHT31;75160;53.138;18.020;2024-02-26T04:01:15;3.84;81.63
79497;SHT31;75160;53.138;18.020;2024-02-26T04:02:17;3.86;81.70
79497;SHT31;75160;53.138;18.020;2024-02-26T04:03:20;3.88;81.65
79497;SHT31;75160;53.138;18.020;2024-02-26T04:04:22;3.91;81.70
79497;SHT31;75160;53.138;18.020;2024-02-26T04:05:24;3.92;81.63
79497;SHT31;75160;53.138;18.020;2024-02-26T04:06:26;3.90;81.60
79497;SHT31;75160;53.138;18.020;2024-02-26T04:07:27;3.92;81.68
79497;SHT31;75160;53.138;18.020;2024-02-26T04:08:29;3.91;81.68
79497;SHT31;75160;53.138;18.020;2024-02-26T04:09:31;3.89;81.60
79497;SHT31;75160;53.138;18.020;2024-02-26T04:10:33;3.86;81.70
79497;SHT31;75160;53.138;18.020;2024-02-26T04:11:42;3.83;81.75
79497;SHT31;75160;53.138;18.020;2024-02-26T04:12:46;3.83;81.80
79497;SHT31;75160;53.138;18.020;2024-02-26T04:13:48;3.82;81.82
79497;SHT31;75160;53.138;18.020;2024-02-26T04:14:53;3.82;81.90
79497;SHT31;75160;53.138;18.020;2024-02-26T04:15:55;3.80;81.82
79497;SHT31;75160;53.138;18.020;2024-02-26T04:16:57;3.79;81.80
79497;SHT31;75160;53.138;18.020;2024-02-26T04:17:59;3.77;81.82
79497;SHT31;75160;53.138;18.020;2024-02-26T04:19:01;3.77;81.80
79497;SHT31;75160;53.138;18.020;2024-02-26T04:20:03;3.75;81.85
79497;SHT31;75160;53.138;18.020;2024-02-26T04:21:07;3.73;81.78
79497;SHT31;75160;53.138;18.020;2024-02-26T04:22:08;3.73;81.75
79497;SHT31;75160;53.138;18.020;2024-02-26T04:23:12;3.71;81.70
79497;SHT31;75160;53.138;18.020;2024-02-26T04:24:14;3.69;81.78
79497;SHT31;75160;53.138;18.020;2024-02-26T04:25:16;3.69;81.80
79497;SHT31;75160;53.138;18.020;2024-02-26T04:26:17;3.65;81.82
79497;SHT31;75160;53.138;18.020;2024-02-26T04:27:19;3.61;81.63
79497;SHT31;75160;53.138;18.020;2024-02-26T04:28:21;3.54;81.55
79497;SHT31;75160;53.138;18.020;2024-02-26T04:29:23;3.48;81.50
79497;SHT31;75160;53.138;18.020;2024-02-26T04:30:24;3.44;81.55
79497;SHT31;75160;53.138;18.020;2024-02-26T04:31:26;3.41;81.70
79497;SHT31;75160;53.138;18.020;2024-02-26T04:32:28;3.37;81.75
79497;SHT31;75160;53.138;18.020;2024-02-26T04:33:33;3.31;81.70
79497;SHT31;75160;53.138;18.020;2024-02-26T04:34:36;3.26;81.75
79497;SHT31;75160;53.138;18.020;2024-02-26T04:35:38;3.25;81.85
79497;SHT31;75160;53.138;18.020;2024-02-26T04:36:40;3.23;81.95
79497;SHT31;75160;53.138;18.020;2024-02-26T04:37:42;3.24;81.93
79497;SHT31;75160;53.138;18.020;2024-02-26T04:38:43;3.22;81.85
79497;SHT31;75160;53.138;18.020;2024-02-26T04:39:46;3.21;81.80
79497;SHT31;75160;53.138;18.020;2024-02-26T04:40:48;3.19;81.70
79497;SHT31;75160;53.138;18.020;2024-02-26T04:41:49;3.17;81.70
79497;SHT31;75160;53.138;18.020;2024-02-26T04:42:51;3.17;81.78
79497;SHT31;75160;53.138;18.020;2024-02-26T04:43:53;3.14;81.72
79497;SHT31;75160;53.138;18.020;2024-02-26T04:44:55;3.12;81.70
79497;SHT31;75160;53.138;18.020;2024-02-26T04:45:57;3.10;81.72
79497;SHT31;75160;53.138;18.020;2024-02-26T04:46:58;3.07;81.78
79497;SHT31;75160;53.138;18.020;2024-02-26T04:48:00;3.03;81.72
79497;SHT31;75160;53.138;18.020;2024-02-26T04:49:02;3.01;81.78
79497;SHT31;75160;53.138;18.020;2024-02-26T04:50:04;2.96;81.78
79497;SHT31;75160;53.138;18.020;2024-02-26T04:51:07;2.95;81.90
79497;SHT31;75160;53.138;18.020;2024-02-26T04:52:09;2.94;81.95
79497;SHT31;75160;53.138;18.020;2024-02-26T04:53:11;2.92;81.95
79497;SHT31;75160;53.138;18.020;2024-02-26T04:54:12;2.91;82.00
79497;SHT31;75160;53.138;18.020;2024-02-26T04:55:14;2.90;82.00
79497;SHT31;75160;53.138;18.020;2024-02-26T04:56:16;2.87;81.95
79497;SHT31;75160;53.138;18.020;2024-02-26T04:57:18;2.87;81.90
79497;SHT31;75160;53.138;18.020;2024-02-26T04:58:19;2.85;81.88
79497;SHT31;75160;53.138;18.020;2024-02-26T04:59:21;2.83;81.90
79497;SHT31;75160;53.138;18.020;2024-02-26T05:00:23;2.84;82.00
79497;SHT31;75160;53.138;18.020;2024-02-26T05:01:25;2.82;81.95
79497;SHT31;75160;53.138;18.020;2024-02-26T05:02:27;2.80;81.85
79497;SHT31;75160;53.138;18.020;2024-02-26T05:03:28;2.79;81.80
79497;SHT31;75160;53.138;18.020;2024-02-26T05:04:30;2.79;81.85
79497;SHT31;75160;53.138;18.020;2024-02-26T05:05:32;2.77;81.90
79497;SHT31;75160;53.138;18.020;2024-02-26T05:06:34;2.76;81.90
79497;SHT31;75160;53.138;18.020;2024-02-26T05:07:41;2.76;82.05
79497;SHT31;75160;53.138;18.020;2024-02-26T05:08:45;2.77;82.00
79497;SHT31;75160;53.138;18.020;2024-02-26T05:09:47;2.75;82.00
79497;SHT31;75160;53.138;18.020;2024-02-26T05:10:51;2.74;82.00
79497;SHT31;75160;53.138;18.020;2024-02-26T05:11:52;2.74;81.93
79497;SHT31;75160;53.138;18.020;2024-02-26T05:12:54;2.72;81.90
79497;SHT31;75160;53.138;18.020;2024-02-26T05:13:56;2.72;82.00
79497;SHT31;75160;53.138;18.020;2024-02-26T05:14:58;2.70;82.03
79497;SHT31;75160;53.138;18.020;2024-02-26T05:16:00;2.72;82.10
79497;SHT31;75160;53.138;18.020;2024-02-26T05:17:02;2.73;82.10
79497;SHT31;75160;53.138;18.020;2024-02-26T05:18:04;2.72;82.13
79497;SHT31;75160;53.138;18.020;2024-02-26T05:19:06;2.75;82.20
79497;SHT31;75160;53.138;18.020;2024-02-26T05:20:08;2.76;82.28
79497;SHT31;75160;53.138;18.020;2024-02-26T05:21:10;2.77;82.18
79497;SHT31;75160;53.138;18.020;2024-02-26T05:22:12;2.77;82.00
79497;SHT31;75160;53.138;18.020;2024-02-26T05:23:14;2.78;82.18
79497;SHT31;75160;53.138;18.020;2024-02-26T05:24:16;2.78;82.10
79497;SHT31;75160;53.138;18.020;2024-02-26T05:25:18;2.77;81.90
79497;SHT31;75160;53.138;18.020;2024-02-26T05:26:20;2.78;81.90
79497;SHT31;75160;53.138;18.020;2024-02-26T05:27:23;2.78;82.15
79497;SHT31;75160;53.138;18.020;2024-02-26T05:28:25;2.82;82.35
79497;SHT31;75160;53.138;18.020;2024-02-26T05:29:27;2.83;82.45
79497;SHT31;75160;53.138;18.020;2024-02-26T05:30:29;2.86;82.28
79497;SHT31;75160;53.138;18.020;2024-02-26T05:31:30;2.85;82.03
79497;SHT31;75160;53.138;18.020;2024-02-26T05:32:32;2.83;81.80
79497;SHT31;75160;53.138;18.020;2024-02-26T05:33:34;2.81;81.70
79497;SHT31;75160;53.138;18.020;2024-02-26T05:34:36;2.78;81.68
79497;SHT31;75160;53.138;18.020;2024-02-26T05:35:38;2.77;81.78
79497;SHT31;75160;53.138;18.020;2024-02-26T05:36:41;2.76;81.88
79497;SHT31;75160;53.138;18.020;2024-02-26T05:37:43;2.73;81.85
79497;SHT31;75160;53.138;18.020;2024-02-26T05:38:45;2.71;81.75
79497;SHT31;75160;53.138;18.020;2024-02-26T05:39:47;2.68;81.70
79497;SHT31;75160;53.138;18.020;2024-02-26T05:40:49;2.65;81.60
79497;SHT31;75160;53.138;18.020;2024-02-26T05:41:53;2.62;81.65
79497;SHT31;75160;53.138;18.020;2024-02-26T05:42:55;2.60;81.78
79497;SHT31;75160;53.138;18.020;2024-02-26T05:43:57;2.57;81.68
79497;SHT31;75160;53.138;18.020;2024-02-26T05:45:00;2.55;81.70
79497;SHT31;75160;53.138;18.020;2024-02-26T05:46:07;2.53;81.85
79497;SHT31;75160;53.138;18.020;2024-02-26T05:47:09;2.52;81.93
79497;SHT31;75160;53.138;18.020;2024-02-26T05:48:11;2.48;81.90
79497;SHT31;75160;53.138;18.020;2024-02-26T05:49:13;2.47;81.90
79497;SHT31;75160;53.138;18.020;2024-02-26T05:50:15;2.46;81.95
79497;SHT31;75160;53.138;18.020;2024-02-26T05:51:17;2.45;82.07
79497;SHT31;75160;53.138;18.020;2024-02-26T05:52:20;2.45;82.20
79497;SHT31;75160;53.138;18.020;2024-02-26T05:53:21;2.44;82.20
79497;SHT31;75160;53.138;18.020;2024-02-26T05:54:23;2.45;82.18
79497;SHT31;75160;53.138;18.020;2024-02-26T05:55:25;2.46;82.10
79497;SHT31;75160;53.138;18.020;2024-02-26T05:56:27;2.46;82.07
79497;SHT31;75160;53.138;18.020;2024-02-26T05:57:28;2.49;82.25
79497;SHT31;75160;53.138;18.020;2024-02-26T05:58:30;2.52;82.30
79497;SHT31;75160;53.138;18.020;2024-02-26T05:59:32;2.51;82.10
79497;SHT31;75160;53.138;18.020;2024-02-26T06:00:34;2.48;81.90
79497;SHT31;75160;53.138;18.020;2024-02-26T06:01:35;2.46;81.75
79497;SHT31;75160;53.138;18.020;2024-02-26T06:02:38;2.45;81.75
79497;SHT31;75160;53.138;18.020;2024-02-26T06:03:40;2.44;81.88
79497;SHT31;75160;53.138;18.020;2024-02-26T06:04:41;2.44;81.88
79497;SHT31;75160;53.138;18.020;2024-02-26T06:05:43;2.43;81.97
79497;SHT31;75160;53.138;18.020;2024-02-26T06:06:45;2.43;81.97
79497;SHT31;75160;53.138;18.020;2024-02-26T06:07:47;2.41;81.82
79497;SHT31;75160;53.138;18.020;2024-02-26T06:08:49;2.39;81.72
79497;SHT31;75160;53.138;18.020;2024-02-26T06:09:51;2.36;81.60
79497;SHT31;75160;53.138;18.020;2024-02-26T06:10:53;2.35;81.70
79497;SHT31;75160;53.138;18.020;2024-02-26T06:11:55;2.30;81.57
79497;SHT31;75160;53.138;18.020;2024-02-26T06:12:56;2.29;81.57
79497;SHT31;75160;53.138;18.020;2024-02-26T06:13:58;2.28;81.60
79497;SHT31;75160;53.138;18.020;2024-02-26T06:15:00;2.28;81.68
79497;SHT31;75160;53.138;18.020;2024-02-26T06:16:02;2.29;81.70
79497;SHT31;75160;53.138;18.020;2024-02-26T06:17:04;2.29;81.65
79497;SHT31;75160;53.138;18.020;2024-02-26T06:18:06;2.28;81.60
79497;SHT31;75160;53.138;18.020;2024-02-26T06:19:08;2.28;81.50
79497;SHT31;75160;53.138;18.020;2024-02-26T06:20:10;2.27;81.50
79497;SHT31;75160;53.138;18.020;2024-02-26T06:21:14;2.25;81.53
79497;SHT31;75160;53.138;18.020;2024-02-26T06:22:15;2.25;81.60
79497;SHT31;75160;53.138;18.020;2024-02-26T06:23:18;2.26;81.72
79497;SHT31;75160;53.138;18.020;2024-02-26T06:24:20;2.26;81.80
79497;SHT31;75160;53.138;18.020;2024-02-26T06:25:23;2.26;81.68
79497;SHT31;75160;53.138;18.020;2024-02-26T06:26:26;2.26;81.55
79497;SHT31;75160;53.138;18.020;2024-02-26T06:27:30;2.24;81.50
79497;SHT31;75160;53.138;18.020;2024-02-26T06:28:32;2.27;81.65
79497;SHT31;75160;53.138;18.020;2024-02-26T06:29:35;2.27;81.70
79497;SHT31;75160;53.138;18.020;2024-02-26T06:30:37;2.29;81.70
79497;SHT31;75160;53.138;18.020;2024-02-26T06:31:38;2.32;81.90
79497;SHT31;75160;53.138;18.020;2024-02-26T06:32:40;2.34;81.90